Terminal Aerodrome Forecast
Issued by NWS Oklahoma City, OK

Home | Current Version | Previous Version | Text Only | Print | Product List | Glossary On
Versions: 1 2 3 4 5 6 7 8 9 10 11 12 13 14 15
000
FTUS44 KOUN 040530
TAFOUN
TAF
KOUN 040530Z 0406/0506 05004KT 2SM -RADZ BR OVC004
     FM041000 34004KT 1/2SM FG OVC003
     FM041500 34007KT 4SM BR BKN007 OVC015
     FM041700 35009KT P6SM BKN030
     FM041900 35010KT P6SM SCT030
     FM050000 VRB03KT P6SM SKC=

USA.gov is the U.S. government's official web portal to all federal, state and local government web resources and services.